createdAt,value
2019-03-20T00:00:01.475Z,12.2
2019-03-20T00:01:05.090Z,12.3
2019-03-20T00:02:09.088Z,12.3
2019-03-20T00:03:10.340Z,12.2
2019-03-20T00:04:11.588Z,12.2
2019-03-20T00:05:12.857Z,12.2
2019-03-20T00:06:15.544Z,12.2
2019-03-20T00:07:19.537Z,12.2
2019-03-20T00:08:20.838Z,12.3
2019-03-20T00:09:22.137Z,12.2
2019-03-20T00:10:23.397Z,12.2
2019-03-20T00:11:24.725Z,12.2
2019-03-20T00:12:25.986Z,12.2
2019-03-20T00:13:27.265Z,12.2
2019-03-20T00:14:28.521Z,12.2
2019-03-20T00:15:29.801Z,12.3
2019-03-20T00:16:32.266Z,12.2
2019-03-20T00:17:33.536Z,12.3
2019-03-20T00:18:34.801Z,12.2
2019-03-20T00:19:36.056Z,12.2
2019-03-20T00:20:37.323Z,12.2
2019-03-20T00:21:38.992Z,12.2
2019-03-20T00:22:41.962Z,12.2
2019-03-20T00:23:44.741Z,12.2
2019-03-20T00:24:46.316Z,12.2
2019-03-20T00:25:47.564Z,12.2
2019-03-20T00:26:49.104Z,12.2
2019-03-20T00:27:50.584Z,12.2
2019-03-20T00:28:53.176Z,12.3
2019-03-20T00:29:54.442Z,12.3
2019-03-20T00:30:55.686Z,12.3
2019-03-20T00:31:56.995Z,12.2
2019-03-20T00:32:58.263Z,12.2
2019-03-20T00:33:59.537Z,12.2
2019-03-20T00:35:01.478Z,12.2
2019-03-20T00:36:02.902Z,12.2
2019-03-20T00:37:04.190Z,12.2
2019-03-20T00:38:05.433Z,12.1
2019-03-20T00:39:06.807Z,12.2
2019-03-20T00:40:08.060Z,12.2
2019-03-20T00:41:09.299Z,12.2
2019-03-20T00:42:10.621Z,12.2
2019-03-20T00:43:11.893Z,12.2
2019-03-20T00:44:13.157Z,12.2
2019-03-20T00:45:14.409Z,12.2
2019-03-20T00:46:15.687Z,12.2
2019-03-20T00:47:16.992Z,12.2
2019-03-20T00:48:18.263Z,12.2
2019-03-20T00:49:19.508Z,12.2
2019-03-20T00:50:20.763Z,12.2
2019-03-20T00:51:22.063Z,12.2
2019-03-20T00:52:23.373Z,12.2
2019-03-20T00:53:24.623Z,12.2
2019-03-20T00:54:25.870Z,12.2
2019-03-20T00:55:27.225Z,12.2
2019-03-20T00:56:28.480Z,12.2
2019-03-20T00:57:29.797Z,12.2
2019-03-20T00:58:33.540Z,12.2
2019-03-20T00:59:34.800Z,12.2
2019-03-20T01:00:36.041Z,12.2
2019-03-20T01:01:37.306Z,12.2
2019-03-20T01:02:38.576Z,12.2
2019-03-20T01:03:39.890Z,12.2
2019-03-20T01:04:41.159Z,12.2
2019-03-20T01:05:42.459Z,12.2
2019-03-20T01:06:43.703Z,12.2
2019-03-20T01:07:44.988Z,12.2
2019-03-20T01:08:46.237Z,12.2
2019-03-20T01:09:47.483Z,12.2
2019-03-20T01:10:48.757Z,12.2
2019-03-20T01:11:50.033Z,12.2
2019-03-20T01:12:51.355Z,12.2
2019-03-20T01:13:52.871Z,12.2
2019-03-20T01:14:54.364Z,12.2
2019-03-20T01:15:55.631Z,12.2
2019-03-20T01:16:56.899Z,12.2
2019-03-20T01:17:58.192Z,12.2
2019-03-20T01:18:59.447Z,12.2
2019-03-20T01:20:00.979Z,12.1
2019-03-20T01:21:02.260Z,12.2
2019-03-20T01:22:03.513Z,12.2
2019-03-20T01:23:07.261Z,12.2
2019-03-20T01:24:08.521Z,12.2
2019-03-20T01:25:09.791Z,12.1
2019-03-20T01:26:11.309Z,12.1
2019-03-20T01:27:12.760Z,12.1
2019-03-20T01:28:14.083Z,12.1
2019-03-20T01:29:15.354Z,12.2
2019-03-20T01:30:16.617Z,12.1
2019-03-20T01:31:17.918Z,12.1
2019-03-20T01:32:19.184Z,12.1
2019-03-20T01:33:20.526Z,12.1
2019-03-20T01:34:21.793Z,12.1
2019-03-20T01:35:24.207Z,12.1
2019-03-20T01:36:26.621Z,12.1
2019-03-20T01:37:27.898Z,12.1
2019-03-20T01:38:29.195Z,12.2
2019-03-20T01:39:30.623Z,12.1
2019-03-20T01:40:31.896Z,12.1
2019-03-20T01:41:37.766Z,12.1
2019-03-20T01:42:39.557Z,12.1
2019-03-20T01:43:40.878Z,12.1
2019-03-20T01:44:42.139Z,12.1
2019-03-20T01:45:43.393Z,12.1
2019-03-20T01:46:44.641Z,12.1
2019-03-20T01:47:45.913Z,12.1
2019-03-20T01:48:47.213Z,12.1
2019-03-20T01:49:48.477Z,12
2019-03-20T01:50:49.745Z,12.1
2019-03-20T01:51:51.847Z,12.1
2019-03-20T01:52:53.119Z,12.1
2019-03-20T01:53:54.397Z,12.1
2019-03-20T01:54:55.711Z,12
2019-03-20T01:55:56.959Z,12.1
2019-03-20T01:56:58.205Z,12
2019-03-20T01:57:59.456Z,12.1
2019-03-20T01:59:01.998Z,12.1
2019-03-20T02:00:05.645Z,12
2019-03-20T02:01:11.051Z,12
2019-03-20T02:02:12.313Z,12
2019-03-20T02:03:14.813Z,12
2019-03-20T02:04:16.103Z,12
2019-03-20T02:05:17.347Z,12
2019-03-20T02:06:18.579Z,12
2019-03-20T02:07:19.827Z,12
2019-03-20T02:08:21.407Z,12.1
2019-03-20T02:09:23.014Z,12
2019-03-20T02:10:24.256Z,12
2019-03-20T02:11:25.515Z,12
2019-03-20T02:12:26.768Z,12
2019-03-20T02:13:28.019Z,12
2019-03-20T02:14:29.677Z,12
2019-03-20T02:15:38.483Z,12
2019-03-20T02:16:40.588Z,12
2019-03-20T02:17:41.889Z,12
2019-03-20T02:18:43.151Z,12
2019-03-20T02:19:44.429Z,12
2019-03-20T02:20:45.694Z,12
2019-03-20T02:21:46.954Z,12
2019-03-20T02:22:48.201Z,12
2019-03-20T02:23:49.456Z,12
2019-03-20T02:24:52.933Z,12
2019-03-20T02:25:54.187Z,12
2019-03-20T02:26:55.447Z,12
2019-03-20T02:27:56.754Z,12
2019-03-20T02:28:58.020Z,12
2019-03-20T02:29:59.770Z,12
2019-03-20T02:31:01.267Z,12
2019-03-20T02:32:02.569Z,12
2019-03-20T02:33:03.919Z,12
2019-03-20T02:34:05.211Z,12
2019-03-20T02:35:06.513Z,12
2019-03-20T02:36:07.795Z,12
2019-03-20T02:37:09.101Z,11.9
2019-03-20T02:38:10.685Z,11.9
2019-03-20T02:39:11.945Z,11.9
2019-03-20T02:40:13.229Z,11.9
2019-03-20T02:41:14.539Z,12
2019-03-20T02:42:15.803Z,12
2019-03-20T02:43:17.064Z,12
2019-03-20T02:44:19.392Z,12
2019-03-20T02:45:20.710Z,11.9
2019-03-20T02:46:22.019Z,11.9
2019-03-20T02:47:23.287Z,12
2019-03-20T02:48:24.540Z,12
2019-03-20T02:49:25.787Z,12
2019-03-20T02:50:27.066Z,12
2019-03-20T02:51:28.337Z,12
2019-03-20T02:52:29.583Z,12
2019-03-20T02:53:30.864Z,12
2019-03-20T02:54:32.128Z,12
2019-03-20T02:55:33.427Z,12
2019-03-20T02:56:34.687Z,11.9
2019-03-20T02:57:35.933Z,11.9
2019-03-20T02:58:37.169Z,11.9
2019-03-20T02:59:38.411Z,11.9
2019-03-20T03:00:39.901Z,11.9
2019-03-20T03:01:41.266Z,11.9
2019-03-20T03:02:43.823Z,11.9
2019-03-20T03:03:45.082Z,12
2019-03-20T03:04:46.368Z,12
2019-03-20T03:05:47.648Z,12
2019-03-20T03:06:48.994Z,12
2019-03-20T03:07:50.250Z,12
2019-03-20T03:08:51.541Z,12
2019-03-20T03:09:55.189Z,12
2019-03-20T03:10:56.495Z,12
2019-03-20T03:11:57.765Z,12
2019-03-20T03:13:00.148Z,12
2019-03-20T03:14:02.418Z,12
2019-03-20T03:15:03.689Z,11.9
2019-03-20T03:16:05.012Z,11.9
2019-03-20T03:17:06.394Z,11.9
2019-03-20T03:18:07.642Z,11.9
2019-03-20T03:19:08.899Z,11.9
2019-03-20T03:20:10.179Z,11.9
2019-03-20T03:21:12.693Z,12
2019-03-20T03:22:15.285Z,12
2019-03-20T03:23:17.810Z,12
2019-03-20T03:24:19.081Z,11.9
2019-03-20T03:25:20.333Z,11.9
2019-03-20T03:26:21.629Z,11.9
2019-03-20T03:27:22.891Z,11.9
2019-03-20T03:28:24.140Z,11.9
2019-03-20T03:29:25.402Z,11.9
2019-03-20T03:30:26.677Z,11.9
2019-03-20T03:31:28.033Z,11.9
2019-03-20T03:32:29.301Z,12
2019-03-20T03:33:30.767Z,11.9
2019-03-20T03:34:32.017Z,12
2019-03-20T03:35:33.326Z,11.9
2019-03-20T03:36:35.891Z,11.9
2019-03-20T03:37:37.138Z,11.9
2019-03-20T03:38:38.581Z,11.9
2019-03-20T03:39:39.820Z,11.8
2019-03-20T03:40:41.083Z,11.9
2019-03-20T03:41:42.398Z,11.9
2019-03-20T03:42:46.264Z,11.9
2019-03-20T03:43:48.927Z,11.9
2019-03-20T03:44:50.179Z,12
2019-03-20T03:45:51.717Z,11.9
2019-03-20T03:46:54.026Z,11.9
2019-03-20T03:47:55.271Z,11.9
2019-03-20T03:48:57.716Z,11.9
2019-03-20T03:50:06.179Z,11.9
2019-03-20T03:51:07.496Z,11.9
2019-03-20T03:52:08.796Z,11.9
2019-03-20T03:53:10.286Z,11.9
2019-03-20T03:54:11.540Z,11.9
2019-03-20T03:55:17.134Z,11.9
2019-03-20T03:56:19.422Z,11.9
2019-03-20T03:57:20.725Z,11.9
2019-03-20T03:58:23.298Z,11.9
2019-03-20T03:59:24.594Z,11.9
2019-03-20T04:00:26.963Z,11.9
2019-03-20T04:01:28.247Z,11.9
2019-03-20T04:02:29.815Z,11.9
2019-03-20T04:03:33.503Z,11.9
2019-03-20T04:04:34.763Z,11.9
2019-03-20T04:05:38.465Z,11.9
2019-03-20T04:06:39.782Z,11.9
2019-03-20T04:07:42.230Z,11.9
2019-03-20T04:08:43.492Z,11.9
2019-03-20T04:09:47.128Z,11.9
2019-03-20T04:10:48.386Z,11.9
2019-03-20T04:11:49.645Z,11.9
2019-03-20T04:12:52.172Z,11.9
2019-03-20T04:13:53.434Z,11.9
2019-03-20T04:14:54.694Z,11.9
2019-03-20T04:15:57.281Z,11.9
2019-03-20T04:16:59.985Z,11.9
2019-03-20T04:18:01.305Z,11.9
2019-03-20T04:19:02.557Z,11.9
2019-03-20T04:20:03.802Z,11.9
2019-03-20T04:21:05.443Z,11.9
2019-03-20T04:22:06.745Z,11.9
2019-03-20T04:23:08.052Z,11.9
2019-03-20T04:24:09.306Z,11.9
2019-03-20T04:25:10.573Z,11.9
2019-03-20T04:26:11.833Z,11.9
2019-03-20T04:27:13.094Z,11.9
2019-03-20T04:28:14.367Z,11.9
2019-03-20T04:29:15.662Z,11.9
2019-03-20T04:30:16.946Z,11.9
2019-03-20T04:31:18.240Z,11.9
2019-03-20T04:32:19.498Z,11.9
2019-03-20T04:33:20.829Z,11.9
2019-03-20T04:34:22.106Z,11.9
2019-03-20T04:35:23.389Z,11.9
2019-03-20T04:36:24.634Z,11.9
2019-03-20T04:37:25.885Z,11.9
2019-03-20T04:38:27.196Z,11.9
2019-03-20T04:39:28.458Z,11.9
2019-03-20T04:40:29.745Z,11.9
2019-03-20T04:41:30.994Z,11.9
2019-03-20T04:42:32.257Z,11.9
2019-03-20T04:43:33.566Z,11.9
2019-03-20T04:44:37.200Z,11.9
2019-03-20T04:45:38.759Z,11.9
2019-03-20T04:46:40.018Z,11.9
2019-03-20T04:47:41.271Z,11.9
2019-03-20T04:48:42.608Z,11.9
2019-03-20T04:49:43.876Z,11.9
2019-03-20T04:50:45.127Z,11.8
2019-03-20T04:51:46.364Z,11.9
2019-03-20T04:52:47.641Z,11.9
2019-03-20T04:53:48.929Z,11.9
2019-03-20T04:54:50.181Z,11.8
2019-03-20T04:55:51.435Z,11.8
2019-03-20T04:56:52.697Z,11.8
2019-03-20T04:57:53.975Z,11.9
2019-03-20T04:58:55.468Z,11.9
2019-03-20T04:59:56.715Z,11.9
2019-03-20T05:00:57.978Z,11.9
2019-03-20T05:01:59.229Z,11.9
2019-03-20T05:03:01.096Z,11.9
2019-03-20T05:04:02.933Z,11.9
2019-03-20T05:05:04.224Z,11.9
2019-03-20T05:06:05.483Z,11.8
2019-03-20T05:07:06.765Z,11.9
2019-03-20T05:08:08.035Z,11.8
2019-03-20T05:09:09.318Z,11.9
2019-03-20T05:10:10.570Z,11.9
2019-03-20T05:11:11.840Z,11.9
2019-03-20T05:12:13.097Z,11.9
2019-03-20T05:13:14.351Z,11.9
2019-03-20T05:14:15.636Z,11.9
2019-03-20T05:15:16.887Z,11.9
2019-03-20T05:16:18.165Z,11.9
2019-03-20T05:17:19.434Z,11.9
2019-03-20T05:18:20.692Z,11.9
2019-03-20T05:19:22.102Z,11.9
2019-03-20T05:20:23.358Z,11.9
2019-03-20T05:21:24.660Z,11.8
2019-03-20T05:22:26.716Z,11.9
2019-03-20T05:23:27.987Z,11.9
2019-03-20T05:24:29.285Z,11.9
2019-03-20T05:25:30.513Z,11.9
2019-03-20T05:26:31.777Z,11.9
2019-03-20T05:27:33.027Z,11.9
2019-03-20T05:28:34.321Z,11.9
2019-03-20T05:29:35.632Z,11.9
2019-03-20T05:30:36.881Z,11.9
2019-03-20T05:31:38.197Z,11.9
2019-03-20T05:32:39.453Z,11.9
2019-03-20T05:33:40.702Z,11.9
2019-03-20T05:34:42.033Z,11.9
2019-03-20T05:35:43.271Z,11.9
2019-03-20T05:36:44.529Z,11.9
2019-03-20T05:37:45.796Z,11.9
2019-03-20T05:38:47.081Z,11.8
2019-03-20T05:39:48.385Z,11.9
2019-03-20T05:40:49.633Z,11.9
2019-03-20T05:41:52.201Z,11.9
2019-03-20T05:42:53.473Z,11.9
2019-03-20T05:43:54.735Z,11.9
2019-03-20T05:44:56.013Z,11.9
2019-03-20T05:45:57.341Z,11.9
2019-03-20T05:47:01.342Z,11.9
2019-03-20T05:48:02.613Z,12
2019-03-20T05:49:03.861Z,11.9
2019-03-20T05:50:05.163Z,12
2019-03-20T05:51:06.465Z,12
2019-03-20T05:52:07.739Z,12
2019-03-20T05:53:08.981Z,12
2019-03-20T05:54:10.219Z,12.1
2019-03-20T05:55:11.525Z,12.1
2019-03-20T05:56:13.121Z,12.1
2019-03-20T05:57:14.395Z,12.1
2019-03-20T05:58:15.691Z,12.1
2019-03-20T05:59:21.311Z,12.1
2019-03-20T06:00:22.598Z,12.1
2019-03-20T06:01:25.083Z,12.2
2019-03-20T06:02:26.357Z,12.2
2019-03-20T06:03:27.602Z,12.2
2019-03-20T06:04:28.855Z,12.3
2019-03-20T06:05:30.155Z,12.3
2019-03-20T06:06:31.403Z,12.4
2019-03-20T06:07:35.543Z,12.4
2019-03-20T06:08:39.497Z,12.4
2019-03-20T06:09:40.779Z,12.4
2019-03-20T06:10:42.071Z,12.4
2019-03-20T06:11:43.581Z,12.4
2019-03-20T06:12:44.846Z,12.5
2019-03-20T06:13:48.597Z,12.6
2019-03-20T06:14:49.869Z,12.6
2019-03-20T06:15:51.158Z,12.7
2019-03-20T06:16:52.440Z,12.7
2019-03-20T06:17:53.683Z,12.7
2019-03-20T06:18:55.101Z,12.7
2019-03-20T06:19:56.371Z,12.7
2019-03-20T06:20:57.697Z,12.8
2019-03-20T06:21:58.997Z,12.7
2019-03-20T06:23:00.260Z,12.8
2019-03-20T06:24:03.833Z,12.8
2019-03-20T06:25:05.120Z,12.9
2019-03-20T06:26:06.687Z,12.9
2019-03-20T06:27:08.240Z,12.9
2019-03-20T06:28:09.501Z,12.9
2019-03-20T06:29:10.754Z,12.9
2019-03-20T06:30:12.286Z,13
2019-03-20T06:31:13.669Z,13
2019-03-20T06:32:14.941Z,13
2019-03-20T06:33:16.580Z,13.1
2019-03-20T06:34:17.844Z,13.1
2019-03-20T06:35:22.319Z,13.1
2019-03-20T06:36:23.667Z,13.1
2019-03-20T06:37:32.348Z,13.1
2019-03-20T06:38:34.001Z,13.2
2019-03-20T06:39:35.252Z,13.3
2019-03-20T06:40:38.827Z,13.3
2019-03-20T06:41:40.125Z,13.3
2019-03-20T06:42:41.638Z,13.4
2019-03-20T06:43:42.892Z,13.4
2019-03-20T06:44:44.509Z,13.5
2019-03-20T06:45:45.749Z,13.5
2019-03-20T06:46:49.569Z,13.5
2019-03-20T06:47:50.859Z,13.5
2019-03-20T06:48:52.121Z,13.6
2019-03-20T06:49:53.397Z,13.6
2019-03-20T06:50:55.269Z,13.7
2019-03-20T06:51:56.564Z,13.8
2019-03-20T06:52:59.946Z,13.8
2019-03-20T06:54:01.212Z,13.9
2019-03-20T06:55:02.475Z,13.9
2019-03-20T06:56:03.773Z,13.9
2019-03-20T06:57:05.190Z,14
2019-03-20T06:58:06.490Z,14
2019-03-20T06:59:07.744Z,14.1
2019-03-20T07:00:08.987Z,14.1
2019-03-20T07:01:10.348Z,14.2
2019-03-20T07:02:11.997Z,14.2
2019-03-20T07:03:13.277Z,14.3
2019-03-20T07:04:14.572Z,14.3
2019-03-20T07:05:15.827Z,14.3
2019-03-20T07:06:18.138Z,14.4
2019-03-20T07:07:19.474Z,14.4
2019-03-20T07:08:20.727Z,14.5
2019-03-20T07:09:22.048Z,14.5
2019-03-20T07:10:23.593Z,14.5
2019-03-20T07:11:24.856Z,14.6
2019-03-20T07:12:26.151Z,14.6
2019-03-20T07:13:27.394Z,14.7
2019-03-20T07:14:30.996Z,14.7
2019-03-20T07:15:32.638Z,14.8
2019-03-20T07:16:33.902Z,14.8
2019-03-20T07:17:35.196Z,14.9
2019-03-20T07:18:36.464Z,14.9
2019-03-20T07:19:37.766Z,15
2019-03-20T07:20:39.026Z,15
2019-03-20T07:21:40.277Z,15.1
2019-03-20T07:22:42.036Z,15.1
2019-03-20T07:23:43.310Z,15.2
2019-03-20T07:24:44.592Z,15.2
2019-03-20T07:25:45.860Z,15.3
2019-03-20T07:26:49.262Z,15.4
2019-03-20T07:27:50.542Z,15.4
2019-03-20T07:28:51.791Z,15.5
2019-03-20T07:29:53.044Z,15.5
2019-03-20T07:30:54.316Z,15.6
2019-03-20T07:31:57.526Z,15.6
2019-03-20T07:32:58.818Z,15.7
2019-03-20T07:34:00.083Z,15.7
2019-03-20T07:35:01.344Z,15.8
2019-03-20T07:36:02.608Z,15.9
2019-03-20T07:37:03.882Z,15.9
2019-03-20T07:38:05.452Z,16
2019-03-20T07:39:06.728Z,16
2019-03-20T07:40:08.002Z,16.1
2019-03-20T07:41:09.282Z,16.1
2019-03-20T07:42:10.586Z,16.2
2019-03-20T07:43:11.888Z,16.2
2019-03-20T07:44:13.154Z,16.3
2019-03-20T07:45:15.383Z,16.3
2019-03-20T07:46:16.672Z,16.4
2019-03-20T07:47:20.100Z,16.4
2019-03-20T07:48:22.234Z,16.5
2019-03-20T07:49:24.098Z,16.5
2019-03-20T07:50:26.408Z,16.5
2019-03-20T07:51:28.042Z,16.6
2019-03-20T07:52:29.619Z,16.7
2019-03-20T07:53:30.967Z,16.7
2019-03-20T07:54:32.260Z,16.7
2019-03-20T07:55:33.567Z,16.8
2019-03-20T07:56:34.828Z,16.8
2019-03-20T07:57:36.096Z,16.9
2019-03-20T07:58:37.388Z,16.9
2019-03-20T07:59:38.675Z,17
2019-03-20T08:00:39.964Z,17
2019-03-20T08:01:41.242Z,17
2019-03-20T08:02:42.529Z,17.1
2019-03-20T08:03:48.787Z,17.1
2019-03-20T08:04:50.042Z,17.2
2019-03-20T08:05:52.699Z,17.2
2019-03-20T08:06:54.886Z,17.3
2019-03-20T08:08:06.360Z,17.3
2019-03-20T08:09:08.969Z,17.4
2019-03-20T08:10:10.220Z,17.4
2019-03-20T08:11:11.520Z,17.5
2019-03-20T08:12:13.090Z,17.5
2019-03-20T08:13:14.354Z,17.5
2019-03-20T08:14:15.662Z,17.6
2019-03-20T08:15:17.171Z,17.6
2019-03-20T08:16:18.430Z,17.6
2019-03-20T08:17:19.706Z,17.7
2019-03-20T08:18:20.960Z,17.7
2019-03-20T08:19:22.268Z,17.8
2019-03-20T08:20:23.552Z,17.8
2019-03-20T08:21:24.830Z,17.8
2019-03-20T08:22:26.084Z,17.9
2019-03-20T08:23:27.571Z,17.9
2019-03-20T08:24:29.290Z,18
2019-03-20T08:25:30.555Z,18
2019-03-20T08:26:33.873Z,18
2019-03-20T08:27:35.134Z,18.1
2019-03-20T08:28:36.430Z,18.1
2019-03-20T08:29:38.897Z,18.1
2019-03-20T08:30:40.480Z,18.2
2019-03-20T08:31:42.562Z,18.2
2019-03-20T08:32:43.815Z,18.3
2019-03-20T08:33:45.256Z,18.3
2019-03-20T08:34:46.600Z,18.4
2019-03-20T08:35:47.854Z,18.4
2019-03-20T08:36:49.098Z,18.4
2019-03-20T08:37:51.223Z,18.5
2019-03-20T08:38:52.705Z,18.5
2019-03-20T08:39:54.281Z,18.5
2019-03-20T08:40:56.576Z,18.6
2019-03-20T08:41:57.833Z,18.6
2019-03-20T08:42:59.098Z,18.6
2019-03-20T08:44:00.410Z,18.7
2019-03-20T08:45:01.888Z,18.7
2019-03-20T08:46:03.487Z,18.7
2019-03-20T08:47:04.767Z,18.8
2019-03-20T08:48:08.512Z,18.8
2019-03-20T08:49:09.960Z,18.8
2019-03-20T08:50:11.511Z,18.8
2019-03-20T08:51:12.769Z,18.9
2019-03-20T08:52:16.991Z,18.9
2019-03-20T08:53:18.260Z,18.9
2019-03-20T08:54:19.525Z,19
2019-03-20T08:55:23.196Z,19
2019-03-20T08:56:24.449Z,19
2019-03-20T08:57:25.714Z,19
2019-03-20T08:58:27.019Z,19
2019-03-20T08:59:28.281Z,19.1
2019-03-20T09:00:29.600Z,19.1
2019-03-20T09:01:30.869Z,19.1
2019-03-20T09:02:32.133Z,19.2
2019-03-20T09:03:33.595Z,19.2
2019-03-20T09:04:35.806Z,19.2
2019-03-20T09:05:37.511Z,19.3
2019-03-20T09:06:38.779Z,19.3
2019-03-20T09:07:47.073Z,19.3
2019-03-20T09:08:48.783Z,19.4
2019-03-20T09:09:50.875Z,19.4
2019-03-20T09:10:52.906Z,19.4
2019-03-20T09:11:54.153Z,19.4
2019-03-20T09:12:55.415Z,19.4
2019-03-20T09:13:56.695Z,19.4
2019-03-20T09:14:59.199Z,19.4
2019-03-20T09:16:00.522Z,19.4
2019-03-20T09:17:01.771Z,19.4
2019-03-20T09:18:04.335Z,19.4
2019-03-20T09:19:05.865Z,19.4
2019-03-20T09:20:07.613Z,19.4
2019-03-20T09:21:08.893Z,19.4
2019-03-20T09:22:10.148Z,19.4
2019-03-20T09:23:11.433Z,19.3
2019-03-20T09:24:13.763Z,19.3
2019-03-20T09:25:15.039Z,19.3
2019-03-20T09:26:16.408Z,19.2
2019-03-20T09:27:20.119Z,19.2
2019-03-20T09:28:21.367Z,19.2
2019-03-20T09:29:22.627Z,19.2
2019-03-20T09:30:23.911Z,19.1
2019-03-20T09:31:25.227Z,19.1
2019-03-20T09:32:32.348Z,19.1
2019-03-20T09:33:37.321Z,19.2
2019-03-20T09:34:39.869Z,19.2
2019-03-20T09:35:41.131Z,19.2
2019-03-20T09:36:43.648Z,19.2
2019-03-20T09:37:51.587Z,19.2
2019-03-20T09:38:54.566Z,19.3
2019-03-20T09:39:58.201Z,19.3
2019-03-20T09:41:00.539Z,19.3
2019-03-20T09:42:09.381Z,19.3
2019-03-20T09:43:10.657Z,19.3
2019-03-20T09:44:12.018Z,19.3
2019-03-20T09:45:14.203Z,19.3
2019-03-20T09:46:15.461Z,19.3
2019-03-20T09:47:16.735Z,19.3
2019-03-20T09:48:18.265Z,19.3
2019-03-20T09:49:19.555Z,19.3
2019-03-20T09:50:21.123Z,19.3
2019-03-20T09:51:22.419Z,19.3
2019-03-20T09:52:26.076Z,19.3
2019-03-20T09:53:27.595Z,19.4
2019-03-20T09:54:28.901Z,19.4
2019-03-20T09:55:30.154Z,19.4
2019-03-20T09:56:31.449Z,19.4
2019-03-20T09:57:32.778Z,19.4
2019-03-20T09:58:35.172Z,19.5
2019-03-20T09:59:39.542Z,19.5
2019-03-20T10:00:41.864Z,19.5
2019-03-20T10:01:43.164Z,19.5
2019-03-20T10:02:44.459Z,19.5
2019-03-20T10:03:45.706Z,19.6
2019-03-20T10:04:47.303Z,19.5
2019-03-20T10:05:50.589Z,19.6
2019-03-20T10:06:51.853Z,19.5
2019-03-20T10:07:53.292Z,19.6
2019-03-20T10:08:54.670Z,19.6
2019-03-20T10:10:07.723Z,19.6
2019-03-20T10:11:10.162Z,19.5
2019-03-20T10:12:11.443Z,19.6
2019-03-20T10:13:13.862Z,19.6
2019-03-20T10:14:15.124Z,19.6
2019-03-20T10:15:16.406Z,19.6
2019-03-20T10:16:17.695Z,19.6
2019-03-20T10:17:19.276Z,19.6
2019-03-20T10:18:20.595Z,19.6
2019-03-20T10:19:21.864Z,19.6
2019-03-20T10:20:23.135Z,19.7
2019-03-20T10:21:24.729Z,19.7
2019-03-20T10:22:25.997Z,19.7
2019-03-20T10:23:27.308Z,19.7
2019-03-20T10:24:28.636Z,19.7
2019-03-20T10:25:31.939Z,19.7
2019-03-20T10:26:33.268Z,19.7
2019-03-20T10:27:34.890Z,19.8
2019-03-20T10:28:37.728Z,19.8
2019-03-20T10:29:39.421Z,19.7
2019-03-20T10:30:40.873Z,19.7
2019-03-20T10:31:42.150Z,19.8
2019-03-20T10:32:44.417Z,19.7
2019-03-20T10:33:45.731Z,19.7
2019-03-20T10:34:49.444Z,19.8
2019-03-20T10:35:51.015Z,19.8
2019-03-20T10:36:52.262Z,19.8
2019-03-20T10:37:53.534Z,19.9
2019-03-20T10:39:05.692Z,19.8
2019-03-20T10:40:07.880Z,19.8
2019-03-20T10:41:09.114Z,19.8
2019-03-20T10:42:10.380Z,19.8
2019-03-20T10:43:11.646Z,19.8
2019-03-20T10:44:14.261Z,19.8
2019-03-20T10:45:15.867Z,19.9
2019-03-20T10:46:18.615Z,19.9
2019-03-20T10:47:19.893Z,19.9
2019-03-20T10:48:21.158Z,19.9
2019-03-20T10:49:22.501Z,19.9
2019-03-20T10:50:23.752Z,19.9
2019-03-20T10:51:25.035Z,19.9
2019-03-20T10:52:26.582Z,19.9
2019-03-20T10:53:29.906Z,19.9
2019-03-20T10:54:31.429Z,19.9
2019-03-20T10:55:33.152Z,19.9
2019-03-20T10:56:34.774Z,19.9
2019-03-20T10:57:36.023Z,19.9
2019-03-20T10:58:37.504Z,19.9
2019-03-20T10:59:39.571Z,19.9
2019-03-20T11:00:41.003Z,19.9
2019-03-20T11:01:42.971Z,19.9
2019-03-20T11:02:44.456Z,19.9
2019-03-20T11:03:45.733Z,19.9
2019-03-20T11:04:49.465Z,19.9
2019-03-20T11:05:50.769Z,19.9
2019-03-20T11:06:53.154Z,19.9
2019-03-20T11:07:55.624Z,19.9
2019-03-20T11:08:59.275Z,20
2019-03-20T11:10:01.556Z,20
2019-03-20T11:11:02.890Z,19.9
2019-03-20T11:12:04.158Z,19.9
2019-03-20T11:13:05.455Z,19.9
2019-03-20T11:14:06.761Z,19.9
2019-03-20T11:15:08.617Z,20
2019-03-20T11:16:09.907Z,19.9
2019-03-20T11:17:13.347Z,19.9
2019-03-20T11:18:16.287Z,19.9
2019-03-20T11:19:28.162Z,19.9
2019-03-20T11:20:30.272Z,19.9
2019-03-20T11:21:31.541Z,20
2019-03-20T11:22:32.838Z,19.9
2019-03-20T11:23:34.137Z,20
2019-03-20T11:24:35.409Z,20
2019-03-20T11:25:37.404Z,20
2019-03-20T11:26:38.780Z,20
2019-03-20T11:27:40.061Z,20
2019-03-20T11:28:41.474Z,20
2019-03-20T11:29:52.731Z,19.9
2019-03-20T11:30:54.322Z,20
2019-03-20T11:31:56.580Z,20
2019-03-20T11:32:58.032Z,20
2019-03-20T11:33:59.318Z,20
2019-03-20T11:35:04.650Z,20
2019-03-20T11:36:08.275Z,20
2019-03-20T11:37:09.610Z,20
2019-03-20T11:38:15.210Z,20
2019-03-20T11:39:16.532Z,20
2019-03-20T11:40:39.990Z,20
2019-03-20T11:41:41.360Z,20
2019-03-20T11:42:44.862Z,20
2019-03-20T11:43:48.570Z,20
2019-03-20T11:44:52.324Z,20
2019-03-20T11:45:53.677Z,20
2019-03-20T11:46:55.664Z,20
2019-03-20T11:47:57.284Z,20
2019-03-20T11:48:59.670Z,20.1
2019-03-20T11:50:02.261Z,20
2019-03-20T11:51:03.733Z,20
2019-03-20T11:52:06.244Z,20
2019-03-20T11:53:07.866Z,20
2019-03-20T11:54:09.464Z,19.9
2019-03-20T11:55:10.801Z,20
2019-03-20T11:56:12.229Z,20
2019-03-20T11:57:13.598Z,20
2019-03-20T11:58:17.174Z,20
2019-03-20T11:59:18.850Z,20
2019-03-20T12:00:22.588Z,20
2019-03-20T12:01:24.382Z,20
2019-03-20T12:02:28.218Z,20
2019-03-20T12:03:34.284Z,20
2019-03-20T12:04:35.844Z,20
2019-03-20T12:05:37.157Z,20
2019-03-20T12:06:39.602Z,20
2019-03-20T12:07:40.897Z,20
2019-03-20T12:08:42.160Z,20
2019-03-20T12:09:44.500Z,20
2019-03-20T12:10:48.014Z,20
2019-03-20T12:11:49.850Z,20
2019-03-20T12:12:55.987Z,20
2019-03-20T12:13:57.653Z,20
2019-03-20T12:15:00.221Z,19.9
2019-03-20T12:16:01.489Z,20
2019-03-20T12:17:02.805Z,20
2019-03-20T12:18:04.263Z,20
2019-03-20T12:19:06.642Z,20
2019-03-20T12:20:08.938Z,20
2019-03-20T12:21:10.201Z,20
2019-03-20T12:22:11.467Z,20
2019-03-20T12:23:12.800Z,20
2019-03-20T12:24:14.402Z,20
2019-03-20T12:25:15.991Z,20
2019-03-20T12:26:17.265Z,20.1
2019-03-20T12:27:18.984Z,20
2019-03-20T12:28:20.625Z,20
2019-03-20T12:29:22.136Z,20
2019-03-20T12:30:27.422Z,20
2019-03-20T12:31:28.759Z,20
2019-03-20T12:32:30.177Z,20
2019-03-20T12:33:31.739Z,20
2019-03-20T12:34:39.269Z,20
2019-03-20T12:35:40.791Z,20
2019-03-20T12:36:42.053Z,20
2019-03-20T12:37:43.337Z,20.1
2019-03-20T12:38:44.696Z,20
2019-03-20T12:39:52.991Z,20.1
2019-03-20T12:40:54.730Z,20
2019-03-20T12:41:56.368Z,20
2019-03-20T12:43:02.391Z,20
2019-03-20T12:44:03.802Z,20
2019-03-20T12:45:05.055Z,20
2019-03-20T12:46:06.329Z,20
2019-03-20T12:47:08.628Z,20
2019-03-20T12:48:10.112Z,20
2019-03-20T12:49:11.496Z,20
2019-03-20T12:50:12.770Z,20
2019-03-20T12:51:14.031Z,20
2019-03-20T12:52:15.586Z,20
2019-03-20T12:53:16.925Z,20
2019-03-20T12:54:18.304Z,20
2019-03-20T12:55:19.742Z,20
2019-03-20T12:56:22.316Z,20
2019-03-20T12:57:24.454Z,20
2019-03-20T12:58:25.727Z,20
2019-03-20T12:59:27.061Z,20
2019-03-20T13:00:28.359Z,20
2019-03-20T13:01:29.945Z,20
2019-03-20T13:02:32.424Z,20
2019-03-20T13:03:35.779Z,20.1
2019-03-20T13:04:37.324Z,20
2019-03-20T13:05:38.765Z,20
2019-03-20T13:06:40.387Z,20
2019-03-20T13:07:41.931Z,20
2019-03-20T13:08:43.216Z,19.9
2019-03-20T13:09:45.863Z,20
2019-03-20T13:10:47.181Z,19.9
2019-03-20T13:11:51.522Z,19.9
2019-03-20T13:12:52.807Z,19.9
2019-03-20T13:13:54.057Z,20
2019-03-20T13:14:56.539Z,20
2019-03-20T13:16:02.518Z,19.9
2019-03-20T13:17:04.301Z,19.9
2019-03-20T13:18:10.816Z,19.9
2019-03-20T13:19:13.190Z,19.9
2019-03-20T13:20:15.544Z,19.9
2019-03-20T13:21:16.826Z,19.9
2019-03-20T13:22:20.501Z,19.9
2019-03-20T13:23:24.446Z,19.9
2019-03-20T13:24:25.855Z,19.9
2019-03-20T13:25:29.597Z,19.8
2019-03-20T13:26:30.898Z,19.9
2019-03-20T13:27:33.842Z,19.9
2019-03-20T13:28:35.213Z,19.9
2019-03-20T13:29:36.777Z,19.9
2019-03-20T13:30:38.133Z,19.9
2019-03-20T13:31:39.390Z,19.9
2019-03-20T13:32:40.988Z,19.9
2019-03-20T13:33:42.415Z,19.8
2019-03-20T13:34:44.780Z,19.9
2019-03-20T13:35:47.081Z,19.8
2019-03-20T13:36:48.353Z,19.8
2019-03-20T13:37:49.721Z,19.8
2019-03-20T13:38:51.877Z,19.8
2019-03-20T13:39:53.417Z,19.8
2019-03-20T13:40:54.741Z,19.8
2019-03-20T13:41:56.369Z,19.8
2019-03-20T13:42:57.949Z,19.9
2019-03-20T13:43:59.215Z,19.8
2019-03-20T13:45:01.716Z,19.8
2019-03-20T13:46:03.934Z,19.8
2019-03-20T13:47:05.223Z,19.8
2019-03-20T13:48:08.849Z,19.8
2019-03-20T13:49:10.467Z,19.8
2019-03-20T13:50:11.729Z,19.8
2019-03-20T13:51:13.059Z,19.7
2019-03-20T13:52:14.534Z,19.7
2019-03-20T13:53:15.815Z,19.7
2019-03-20T13:54:20.033Z,19.7
2019-03-20T13:55:21.578Z,19.7
2019-03-20T13:56:23.944Z,19.7